Time;durP1;ratioP1;P1;durP2;ratioP2;P2;SDS_P1;SDS_P2;PMS_P1;PMS_P2;Temp;Humidity;BMP_temperature;BMP_pressure;BME280_temperature;BME280_humidity;BME280_pressure;Samples;Min_cycle;Max_cycle;Signal;HPM_P1;HPM_P2
2021/12/01 00:02:18;;;;;;;23.00;13.77;;;;;;;9.05;100.00;100088.84;5000108;28;20049;-71
2021/12/01 00:04:43;;;;;;;17.23;9.98;;;;;;;9.01;100.00;100074.00;4998585;28;20064;-70
2021/12/01 00:07:09;;;;;;;13.00;7.25;;;;;;;8.83;100.00;100066.53;5017390;28;20049;-70
2021/12/01 00:09:34;;;;;;;16.92;8.23;;;;;;;8.77;100.00;100050.97;4987906;28;20347;-71
2021/12/01 00:12:00;;;;;;;15.90;7.85;;;;;;;8.84;100.00;100068.22;4983033;28;20044;-70
2021/12/01 00:14:25;;;;;;;17.55;9.45;;;;;;;8.83;100.00;100046.94;5002612;28;20073;-69
2021/12/01 00:16:51;;;;;;;12.10;6.50;;;;;;;8.82;100.00;100037.22;5014058;28;20679;-70
2021/12/01 00:19:16;;;;;;;13.57;7.70;;;;;;;8.95;100.00;100045.09;5019327;28;20364;-68
2021/12/01 00:21:41;;;;;;;11.27;8.38;;;;;;;8.99;100.00;100025.94;5024187;28;20497;-70
2021/12/01 00:24:07;;;;;;;8.98;5.70;;;;;;;9.05;100.00;100018.38;5004051;28;20040;-70
2021/12/01 00:26:32;;;;;;;13.60;7.75;;;;;;;8.97;100.00;100019.03;5002038;28;20494;-68
2021/12/01 00:28:57;;;;;;;9.57;5.75;;;;;;;8.84;100.00;100003.97;5021783;28;20030;-70
2021/12/01 00:31:23;;;;;;;7.20;4.82;;;;;;;8.81;100.00;99993.53;5019864;28;20043;-70
2021/12/01 00:33:48;;;;;;;8.63;6.68;;;;;;;8.90;100.00;99978.50;5022584;28;20056;-72
2021/12/01 00:36:14;;;;;;;7.53;4.53;;;;;;;8.81;100.00;99977.47;5011934;28;20580;-71
2021/12/01 00:38:42;;;;;;;9.73;7.38;;;;;;;8.84;100.00;99960.31;5001917;28;20029;-72
2021/12/01 00:41:08;;;;;;;9.77;5.57;;;;;;;8.87;100.00;99957.38;4995989;28;20108;-70
2021/12/01 00:43:38;;;;;;;9.65;6.85;;;;;;;8.87;100.00;99951.16;4996281;28;20029;-69
2021/12/01 00:46:12;;;;;;;7.78;5.78;;;;;;;8.92;100.00;99957.81;4998147;28;20033;-70
2021/12/01 00:48:38;;;;;;;6.03;3.75;;;;;;;8.90;100.00;99946.38;5013530;28;20486;-71
2021/12/01 00:51:03;;;;;;;10.55;6.70;;;;;;;8.88;100.00;99936.81;5015650;28;20070;-71
2021/12/01 00:53:29;;;;;;;9.25;7.85;;;;;;;8.88;100.00;99934.13;4996634;28;20700;-70
2021/12/01 00:55:54;;;;;;;10.63;6.10;;;;;;;8.91;100.00;99925.84;4998740;28;20022;-71
2021/12/01 00:58:19;;;;;;;8.50;6.15;;;;;;;8.91;100.00;99918.66;5014594;28;20075;-71
2021/12/01 01:00:48;;;;;;;6.82;5.15;;;;;;;8.90;100.00;99926.81;5013697;28;20057;-72
2021/12/01 01:03:14;;;;;;;8.43;5.88;;;;;;;8.95;100.00;99924.59;4994356;28;20030;-70
2021/12/01 01:05:39;;;;;;;6.45;4.00;;;;;;;8.84;100.00;99917.50;4997866;28;20037;-72
2021/12/01 01:08:05;;;;;;;6.10;4.60;;;;;;;8.89;100.00;99915.25;5015712;28;20373;-71
2021/12/01 01:10:46;;;;;;;7.85;5.05;;;;;;;8.79;100.00;99909.84;4996527;28;20075;-71
2021/12/01 01:18:46;;;;;;;4.75;3.40;;;;;;;8.77;100.00;99895.72;5009804;28;20044;-73
2021/12/01 01:21:12;;;;;;;5.03;3.35;;;;;;;8.75;100.00;99895.00;5020297;28;20391;-70
2021/12/01 01:23:38;;;;;;;6.15;4.25;;;;;;;8.75;100.00;99880.78;5016139;28;20030;-71
2021/12/01 01:26:06;;;;;;;8.02;4.68;;;;;;;8.88;100.00;99881.44;5005995;28;20315;-72
2021/12/01 01:28:32;;;;;;;5.95;5.20;;;;;;;8.85;100.00;99862.97;5009391;28;20593;-71
2021/12/01 01:30:58;;;;;;;4.90;4.20;;;;;;;8.81;100.00;99849.00;5013725;28;20037;-70
2021/12/01 01:33:23;;;;;;;5.15;4.07;;;;;;;8.95;100.00;99855.00;4993498;28;20064;-70
2021/12/01 01:35:49;;;;;;;5.72;5.10;;;;;;;8.91;100.00;99856.25;5016175;28;20113;-68
2021/12/01 01:38:14;;;;;;;5.85;3.38;;;;;;;8.72;100.00;99862.31;5014675;28;20034;-71
2021/12/01 01:40:40;;;;;;;5.05;3.38;;;;;;;8.68;100.00;99856.41;5019756;28;20025;-71
2021/12/01 01:43:06;;;;;;;7.93;4.50;;;;;;;8.75;100.00;99844.16;5012309;28;20335;-69
2021/12/01 01:45:32;;;;;;;4.85;3.55;;;;;;;8.73;100.00;99847.97;5022667;28;20022;-72
2021/12/01 01:48:05;;;;;;;6.63;5.07;;;;;;;8.73;100.00;99851.50;5010980;28;20076;-71
2021/12/01 01:50:38;;;;;;;8.30;5.85;;;;;;;8.78;100.00;99829.69;5016496;28;20033;-72
2021/12/01 01:53:09;;;;;;;5.65;4.28;;;;;;;8.69;100.00;99834.84;5012988;28;20269;-70
2021/12/01 01:55:36;;;;;;;6.43;4.97;;;;;;;8.65;100.00;99822.69;5014926;28;20702;-70
2021/12/01 01:58:01;;;;;;;9.07;8.18;;;;;;;8.65;100.00;99819.19;4995390;28;20084;-69
2021/12/01 02:00:28;;;;;;;11.10;6.65;;;;;;;8.57;100.00;99822.53;4997036;28;20486;-72
2021/12/01 02:02:56;;;;;;;11.57;9.07;;;;;;;8.59;100.00;99798.31;4995841;28;20029;-70
2021/12/01 02:05:22;;;;;;;10.30;7.07;;;;;;;8.48;100.00;99805.41;5012813;28;20029;-69
2021/12/01 02:07:47;;;;;;;7.13;5.22;;;;;;;8.52;100.00;99820.22;5010702;28;20438;-71
2021/12/01 02:10:13;;;;;;;11.23;9.93;;;;;;;8.60;100.00;99794.66;4991979;28;20029;-70
2021/12/01 02:12:39;;;;;;;12.77;9.88;;;;;;;8.52;100.00;99790.81;5013559;28;20059;-69
2021/12/01 02:15:08;;;;;;;10.23;7.70;;;;;;;8.48;100.00;99794.72;5013148;28;20033;-71
2021/12/01 02:17:34;;;;;;;9.90;7.03;;;;;;;8.48;100.00;99765.28;4990578;28;20029;-71
2021/12/01 02:20:00;;;;;;;10.63;9.52;;;;;;;8.42;100.00;99749.75;5011884;28;20033;-69
2021/12/01 02:22:25;;;;;;;7.63;6.63;;;;;;;8.39;100.00;99766.91;4995030;28;20037;-70
2021/12/01 02:24:50;;;;;;;11.52;7.32;;;;;;;8.40;100.00;99749.88;5010903;28;20033;-71
2021/12/01 02:27:16;;;;;;;7.30;5.30;;;;;;;8.34;100.00;99760.25;5013537;28;20061;-69
2021/12/01 02:29:41;;;;;;;9.25;6.78;;;;;;;8.41;100.00;99722.16;5008595;28;20479;-71
2021/12/01 02:32:07;;;;;;;9.75;8.27;;;;;;;8.42;100.00;99717.66;5014052;28;20053;-71
2021/12/01 02:34:38;;;;;;;9.75;8.48;;;;;;;8.53;100.00;99738.16;5017230;28;20033;-71
2021/12/01 02:37:04;;;;;;;9.75;8.80;;;;;;;8.41;100.00;99719.47;4992316;28;20029;-68
2021/12/01 02:39:30;;;;;;;5.95;5.00;;;;;;;8.32;100.00;99727.44;5013584;28;20056;-70
2021/12/01 02:42:01;;;;;;;9.32;8.45;;;;;;;8.60;100.00;99696.53;5012252;28;20059;-64
2021/12/01 02:44:27;;;;;;;6.60;5.95;;;;;;;8.28;100.00;99686.78;5012158;28;20029;-64
2021/12/01 02:46:53;;;;;;;6.45;5.85;;;;;;;8.32;100.00;99696.22;5011915;28;20568;-65
2021/12/01 02:49:23;;;;;;;7.30;6.60;;;;;;;8.43;100.00;99686.41;5012114;28;20510;-65
2021/12/01 02:51:49;;;;;;;6.55;5.95;;;;;;;8.41;100.00;99687.38;4993573;28;20030;-70
2021/12/01 02:54:14;;;;;;;5.28;4.65;;;;;;;8.35;100.00;99681.72;5012713;28;20038;-70
2021/12/01 02:56:45;;;;;;;7.70;5.65;;;;;;;8.32;100.00;99676.63;5012482;28;20071;-71
2021/12/01 02:59:11;;;;;;;4.20;3.80;;;;;;;8.19;100.00;99672.38;5013710;28;20037;-70
2021/12/01 03:01:36;;;;;;;5.70;4.82;;;;;;;8.34;100.00;99674.69;5002999;28;20053;-70
2021/12/01 03:04:02;;;;;;;4.80;4.40;;;;;;;8.34;100.00;99659.47;4991055;28;20116;-70
2021/12/01 03:06:28;;;;;;;4.47;4.07;;;;;;;8.22;100.00;99656.03;5001868;28;20045;-70
2021/12/01 03:08:54;;;;;;;3.58;3.22;;;;;;;8.24;100.00;99650.56;5012517;28;20037;-71
2021/12/01 03:11:20;;;;;;;5.30;3.85;;;;;;;8.32;100.00;99642.72;5010446;28;20025;-69
2021/12/01 03:13:45;;;;;;;3.35;3.05;;;;;;;8.15;100.00;99641.53;5008929;28;20056;-70
2021/12/01 03:16:11;;;;;;;3.78;3.35;;;;;;;8.06;100.00;99629.81;5014231;28;20037;-69
2021/12/01 03:18:37;;;;;;;3.38;3.03;;;;;;;8.05;100.00;99625.44;4995160;28;20022;-71
2021/12/01 03:21:02;;;;;;;4.57;4.18;;;;;;;8.04;100.00;99622.88;4997248;28;20029;-70
2021/12/01 03:23:28;;;;;;;6.60;3.95;;;;;;;8.15;100.00;99612.13;5012657;28;20037;-71
2021/12/01 03:25:53;;;;;;;5.15;4.38;;;;;;;8.02;100.00;99615.00;5019269;28;20021;-70
2021/12/01 03:28:19;;;;;;;6.60;4.80;;;;;;;8.01;100.00;99604.44;5017717;28;20041;-70
2021/12/01 03:30:45;;;;;;;9.27;4.80;;;;;;;8.01;100.00;99610.66;5018132;28;20057;-64
2021/12/01 03:33:13;;;;;;;4.57;3.88;;;;;;;8.03;100.00;99608.69;5016069;28;21005;-63
2021/12/01 03:35:41;;;;;;;5.28;4.70;;;;;;;8.11;100.00;99586.63;5002311;28;20106;-65
2021/12/01 03:38:07;;;;;;;10.60;5.78;;;;;;;8.11;100.00;99584.78;5015609;28;20029;-64
2021/12/01 03:40:33;;;;;;;5.45;5.05;;;;;;;7.98;100.00;99576.16;4999514;28;20083;-64
2021/12/01 03:42:58;;;;;;;7.85;5.78;;;;;;;7.91;100.00;99565.16;5016260;28;20026;-65
2021/12/01 03:45:23;;;;;;;5.15;4.65;;;;;;;7.90;100.00;99557.25;5013489;28;20038;-63
2021/12/01 03:47:49;;;;;;;5.05;4.32;;;;;;;7.89;100.00;99572.47;5017932;28;20045;-64
2021/12/01 03:50:14;;;;;;;4.80;4.28;;;;;;;7.91;100.00;99549.13;5015722;28;20034;-64
2021/12/01 03:52:40;;;;;;;7.13;4.30;;;;;;;7.89;100.00;99555.56;5016730;28;20033;-64
2021/12/01 03:55:07;;;;;;;6.38;5.80;;;;;;;8.15;100.00;99539.94;5017300;28;20100;-66
2021/12/01 03:57:33;;;;;;;7.82;4.20;;;;;;;7.94;100.00;99548.00;4996480;28;20041;-65
2021/12/01 03:59:58;;;;;;;4.55;3.92;;;;;;;7.85;100.00;99528.28;5015442;28;20033;-64
2021/12/01 04:02:23;;;;;;;6.35;4.40;;;;;;;8.00;100.00;99523.41;5014404;28;20030;-64
2021/12/01 04:04:49;;;;;;;5.32;4.63;;;;;;;8.08;100.00;99518.22;5011319;28;20677;-64
2021/12/01 04:07:14;;;;;;;5.80;5.05;;;;;;;8.07;100.00;99515.69;5013195;28;20534;-65
2021/12/01 04:09:42;;;;;;;5.28;4.78;;;;;;;8.02;100.00;99515.25;5015959;28;20025;-64
2021/12/01 04:12:08;;;;;;;7.65;4.80;;;;;;;8.06;100.00;99482.78;5012542;28;20068;-64
2021/12/01 04:14:33;;;;;;;5.20;4.50;;;;;;;7.94;100.00;99483.88;4997562;28;20127;-64
2021/12/01 04:16:58;;;;;;;5.00;4.50;;;;;;;7.93;100.00;99483.03;5014732;28;20023;-71
2021/12/01 04:19:24;;;;;;;4.72;4.20;;;;;;;8.01;100.00;99482.34;5015602;28;20470;-69
2021/12/01 04:21:49;;;;;;;4.93;4.43;;;;;;;8.08;100.00;99479.97;5014751;28;20141;-72
2021/12/01 04:24:15;;;;;;;5.43;4.93;;;;;;;8.03;100.00;99452.78;5011157;28;20391;-70
2021/12/01 04:26:40;;;;;;;5.75;5.00;;;;;;;8.07;100.00;99447.06;5012232;28;20037;-69
2021/12/01 04:29:06;;;;;;;6.40;5.80;;;;;;;8.11;100.00;99440.41;5015919;28;20387;-70
2021/12/01 04:31:35;;;;;;;7.93;5.70;;;;;;;8.10;100.00;99443.25;5012263;28;20494;-69
2021/12/01 04:34:01;;;;;;;8.13;4.40;;;;;;;7.77;100.00;99451.47;5013896;28;20056;-68
2021/12/01 04:36:29;;;;;;;6.22;5.43;;;;;;;7.99;100.00;99446.03;5011169;28;20316;-72
2021/12/01 04:38:54;;;;;;;5.70;5.20;;;;;;;8.10;100.00;99422.69;5017443;28;20029;-69
2021/12/01 04:41:22;;;;;;;5.72;5.18;;;;;;;8.09;100.00;99415.66;5017606;28;20072;-71
2021/12/01 04:43:48;;;;;;;5.63;4.95;;;;;;;8.13;100.00;99416.25;5014886;28;20032;-69
2021/12/01 04:46:16;;;;;;;4.95;4.13;;;;;;;7.98;100.00;99375.69;5014298;28;20033;-71
2021/12/01 04:48:43;;;;;;;4.45;4.07;;;;;;;8.10;100.00;99392.47;5019874;28;20029;-70
2021/12/01 04:51:09;;;;;;;5.88;5.07;;;;;;;8.04;100.00;99390.34;5012526;28;20034;-72
2021/12/01 04:53:34;;;;;;;4.90;4.50;;;;;;;8.05;100.00;99392.03;5013475;28;20076;-69
2021/12/01 04:56:00;;;;;;;3.67;3.35;;;;;;;7.92;100.00;99389.63;5011866;28;20414;-71
2021/12/01 04:58:25;;;;;;;4.47;4.07;;;;;;;7.92;100.00;99371.75;5015391;28;20467;-71
2021/12/01 05:00:51;;;;;;;5.07;4.50;;;;;;;7.81;100.00;99370.03;5015234;28;20053;-70
2021/12/01 05:03:17;;;;;;;6.45;5.68;;;;;;;8.01;100.00;99335.34;5015805;28;20030;-70
2021/12/01 05:05:42;;;;;;;5.75;5.25;;;;;;;8.08;100.00;99360.50;5012164;28;20030;-65
2021/12/01 05:08:08;;;;;;;6.15;5.50;;;;;;;7.74;100.00;99350.22;5011704;28;20029;-66
2021/12/01 05:10:33;;;;;;;6.80;5.70;;;;;;;7.54;100.00;99314.59;5011186;28;20026;-65
2021/12/01 05:12:58;;;;;;;6.30;5.18;;;;;;;7.37;100.00;99347.31;5015054;28;20120;-65
2021/12/01 05:15:24;;;;;;;6.22;5.05;;;;;;;7.29;100.00;99351.50;5011604;28;20116;-65
2021/12/01 05:17:49;;;;;;;6.18;5.63;;;;;;;7.52;100.00;99348.59;5017338;28;20072;-71
2021/12/01 05:20:15;;;;;;;5.95;4.82;;;;;;;7.45;100.00;99321.63;5017035;28;20422;-71
2021/12/01 05:22:42;;;;;;;7.78;5.60;;;;;;;7.26;100.00;99332.25;4996188;28;20478;-71
2021/12/01 05:25:08;;;;;;;7.90;6.55;;;;;;;7.30;100.00;99329.16;5014480;28;20065;-71
2021/12/01 05:27:34;;;;;;;6.05;5.50;;;;;;;7.38;100.00;99325.81;5011360;28;20141;-67
2021/12/01 05:29:59;;;;;;;7.15;6.45;;;;;;;7.52;100.00;99313.88;5011823;28;20036;-65
2021/12/01 05:32:25;;;;;;;6.18;5.55;;;;;;;7.35;100.00;99316.25;5016308;28;20467;-65
2021/12/01 05:34:50;;;;;;;5.88;5.00;;;;;;;7.44;100.00;99305.72;5010958;28;20568;-66
2021/12/01 05:37:16;;;;;;;4.75;4.10;;;;;;;7.08;100.00;99300.81;5016731;28;20033;-66
2021/12/01 05:39:44;;;;;;;7.68;6.25;;;;;;;7.40;100.00;99305.16;5010638;28;20029;-64
2021/12/01 05:42:12;;;;;;;5.57;5.07;;;;;;;7.38;100.00;99300.94;5019224;28;20030;-66
2021/12/01 05:44:38;;;;;;;7.43;4.35;;;;;;;7.27;100.00;99300.06;5015243;28;20101;-66
2021/12/01 05:47:04;;;;;;;6.78;5.40;;;;;;;7.16;100.00;99294.81;5015493;28;20026;-66
2021/12/01 05:49:29;;;;;;;6.28;5.70;;;;;;;7.33;100.00;99264.81;5016350;28;20990;-73
2021/12/01 05:51:54;;;;;;;6.20;4.75;;;;;;;7.18;100.00;99271.50;5011151;28;20056;-71
2021/12/01 05:54:20;;;;;;;6.60;4.43;;;;;;;7.00;100.00;99261.47;5013663;28;20075;-66
2021/12/01 05:56:45;;;;;;;7.80;6.97;;;;;;;7.39;100.00;99263.41;5009773;28;20021;-65
2021/12/01 05:59:10;;;;;;;7.70;6.95;;;;;;;7.28;100.00;99259.03;5012783;28;20033;-67
2021/12/01 06:01:36;;;;;;;9.77;5.13;;;;;;;7.10;100.00;99250.84;5010554;28;20063;-67
2021/12/01 06:04:02;;;;;;;6.55;5.93;;;;;;;7.20;100.00;99237.50;5014281;28;20060;-66
2021/12/01 06:06:28;;;;;;;7.05;6.40;;;;;;;7.25;100.00;99232.59;5011090;28;20025;-66
2021/12/01 06:08:53;;;;;;;6.53;5.65;;;;;;;7.09;100.00;99216.28;5010673;28;20482;-67
2021/12/01 06:11:20;;;;;;;5.38;4.88;;;;;;;7.06;100.00;99249.41;5015260;28;20113;-66
2021/12/01 06:13:45;;;;;;;7.43;5.95;;;;;;;7.11;100.00;99227.66;4992364;28;20538;-66
2021/12/01 06:16:11;;;;;;;7.22;6.53;;;;;;;7.39;100.00;99175.28;5012478;28;20029;-64
2021/12/01 06:18:36;;;;;;;3.53;3.22;;;;;;;7.04;100.00;99203.34;5010830;28;20026;-66
2021/12/01 06:21:02;;;;;;;5.43;4.63;;;;;;;7.10;100.00;99191.28;5012492;28;20666;-70
2021/12/01 06:23:28;;;;;;;4.80;4.40;;;;;;;7.28;100.00;99186.13;5011327;28;20026;-70
2021/12/01 06:25:53;;;;;;;4.35;3.60;;;;;;;7.22;100.00;99182.16;5009727;28;20028;-73
2021/12/01 06:28:19;;;;;;;4.45;4.05;;;;;;;7.24;100.00;99184.72;5013403;28;20056;-71
2021/12/01 06:30:44;;;;;;;4.35;3.35;;;;;;;7.08;100.00;99185.25;5010052;28;20108;-67
2021/12/01 06:33:10;;;;;;;3.33;3.05;;;;;;;7.01;100.00;99184.94;5010913;28;20049;-67
2021/12/01 06:35:36;;;;;;;3.60;3.30;;;;;;;7.02;100.00;99151.91;5014155;28;20491;-68
2021/12/01 06:38:03;;;;;;;3.58;3.28;;;;;;;7.14;100.00;99163.34;5011383;28;20056;-67
2021/12/01 06:40:28;;;;;;;3.55;3.20;;;;;;;7.18;100.00;99178.06;5013991;28;20036;-66
2021/12/01 06:42:54;;;;;;;3.28;2.97;;;;;;;7.38;100.00;99172.78;5019307;28;20139;-66
2021/12/01 06:45:20;;;;;;;3.38;3.08;;;;;;;7.42;100.00;99153.66;5018013;28;20060;-67
2021/12/01 06:47:46;;;;;;;2.97;2.42;;;;;;;7.03;100.00;99154.47;5017556;28;20387;-66
2021/12/01 06:50:12;;;;;;;3.78;3.38;;;;;;;7.09;100.00;99149.56;5017103;28;20079;-66
2021/12/01 06:52:38;;;;;;;4.15;3.85;;;;;;;7.46;100.00;99144.38;5015778;28;20041;-67
2021/12/01 06:55:05;;;;;;;4.00;3.70;;;;;;;7.23;100.00;99154.47;5020183;28;20032;-65
2021/12/01 06:57:30;;;;;;;4.30;3.28;;;;;;;7.10;100.00;99132.56;4995052;28;20030;-66
2021/12/01 06:59:55;;;;;;;3.78;3.10;;;;;;;7.09;100.00;99129.03;5001416;28;20037;-66
2021/12/01 07:02:21;;;;;;;4.22;3.92;;;;;;;7.26;100.00;99148.88;5017361;28;20036;-71
2021/12/01 07:04:47;;;;;;;3.80;3.47;;;;;;;7.24;100.00;99140.16;5018283;28;20030;-70
2021/12/01 07:07:12;;;;;;;3.97;3.58;;;;;;;7.20;100.00;99142.28;5015712;28;20100;-71
2021/12/01 07:09:38;;;;;;;3.30;3.00;;;;;;;7.18;100.00;99130.88;5000800;28;20112;-71
2021/12/01 07:12:03;;;;;;;3.47;2.88;;;;;;;7.19;100.00;99126.38;5016002;28;20030;-71
2021/12/01 07:14:29;;;;;;;3.17;2.88;;;;;;;7.22;100.00;99126.09;5020660;28;20026;-71
2021/12/01 07:16:54;;;;;;;2.83;2.53;;;;;;;7.18;100.00;99124.69;5013903;28;20071;-72
2021/12/01 07:19:20;;;;;;;3.70;3.40;;;;;;;7.27;100.00;99137.22;5012088;28;20026;-73
2021/12/01 07:21:45;;;;;;;3.72;3.08;;;;;;;7.22;100.00;99127.94;5013807;28;20032;-70
2021/12/01 07:24:11;;;;;;;4.15;3.35;;;;;;;7.25;100.00;99099.13;5017839;28;20037;-70
2021/12/01 07:26:37;;;;;;;5.20;4.70;;;;;;;7.42;100.00;99110.06;5014252;28;20025;-70
2021/12/01 07:29:03;;;;;;;5.65;4.22;;;;;;;7.38;100.00;99116.69;5019723;28;20078;-72
2021/12/01 07:31:28;;;;;;;3.92;3.35;;;;;;;7.21;100.00;99119.06;5010571;28;20045;-71
2021/12/01 07:33:55;;;;;;;5.38;3.85;;;;;;;7.41;100.00;99114.59;5020355;28;20041;-73
2021/12/01 07:36:20;;;;;;;3.42;2.83;;;;;;;7.31;100.00;99116.41;5010088;28;20022;-71
2021/12/01 07:38:45;;;;;;;5.50;5.00;;;;;;;7.37;100.00;99104.34;5016680;28;20036;-70
2021/12/01 07:41:11;;;;;;;4.00;3.65;;;;;;;7.44;100.00;99097.41;5016336;28;20032;-71
2021/12/01 07:43:36;;;;;;;5.68;5.10;;;;;;;7.53;100.00;99088.56;5014744;28;20456;-71
2021/12/01 07:46:01;;;;;;;3.55;2.90;;;;;;;7.33;100.00;99085.06;5013645;28;20078;-72
2021/12/01 07:48:28;;;;;;;5.25;4.75;;;;;;;7.46;100.00;99093.66;5009676;28;20116;-72
2021/12/01 07:50:53;;;;;;;5.07;3.95;;;;;;;7.34;100.00;99065.41;5008695;28;20071;-71
2021/12/01 07:53:19;;;;;;;5.28;4.72;;;;;;;7.48;100.00;99094.34;5010637;28;20033;-66
2021/12/01 07:55:44;;;;;;;6.10;4.75;;;;;;;7.50;100.00;99084.38;5015104;28;20065;-66
2021/12/01 07:58:09;;;;;;;4.68;4.28;;;;;;;7.43;100.00;99093.94;5011371;28;20072;-65
2021/12/01 08:00:35;;;;;;;5.10;4.07;;;;;;;7.55;100.00;99094.59;5009246;28;20025;-72
2021/12/01 08:03:00;;;;;;;5.25;4.10;;;;;;;7.56;100.00;99074.94;5008316;28;20189;-73
2021/12/01 08:05:26;;;;;;;6.18;5.57;;;;;;;7.73;100.00;99073.34;5016769;28;20658;-66
2021/12/01 08:07:51;;;;;;;8.13;4.18;;;;;;;7.55;100.00;99046.53;5012472;28;20030;-65
2021/12/01 08:10:17;;;;;;;5.03;4.50;;;;;;;7.63;100.00;99078.72;5019058;28;20040;-66
2021/12/01 08:12:42;;;;;;;5.78;5.10;;;;;;;7.77;100.00;99068.56;5013198;28;20032;-65
2021/12/01 08:15:08;;;;;;;4.47;4.03;;;;;;;7.71;100.00;99061.09;5024377;28;20036;-66
2021/12/01 08:17:34;;;;;;;3.65;2.38;;;;;;;7.81;100.00;99065.44;5015404;28;20478;-65
2021/12/01 08:19:59;;;;;;;5.88;4.18;;;;;;;7.73;100.00;99075.16;4994433;28;20064;-66
2021/12/01 08:22:25;;;;;;;6.53;4.30;;;;;;;7.68;100.00;99059.56;5012064;28;20108;-65
2021/12/01 08:24:51;;;;;;;5.32;4.78;;;;;;;7.94;100.00;99058.94;5018552;28;20022;-66
2021/12/01 08:27:16;;;;;;;3.17;2.78;;;;;;;7.81;100.00;99067.28;5013576;28;20037;-65
2021/12/01 08:29:42;;;;;;;5.53;5.03;;;;;;;7.76;100.00;99042.81;5018018;28;20025;-66
2021/12/01 08:32:07;;;;;;;5.68;3.40;;;;;;;7.88;100.00;99055.03;5012758;28;20117;-65
2021/12/01 08:34:32;;;;;;;6.15;4.38;;;;;;;7.86;100.00;99062.34;5015641;28;20033;-71
2021/12/01 08:36:58;;;;;;;6.40;5.45;;;;;;;7.95;100.00;99028.56;5014700;28;20044;-71
2021/12/01 08:39:23;;;;;;;5.40;4.90;;;;;;;7.88;100.00;99032.78;5022354;28;20060;-72
2021/12/01 08:41:49;;;;;;;5.20;4.70;;;;;;;7.91;100.00;99038.69;5017793;28;20060;-69
2021/12/01 08:44:14;;;;;;;5.28;4.82;;;;;;;7.95;100.00;99036.56;5020130;28;20030;-69
2021/12/01 08:46:40;;;;;;;5.70;4.38;;;;;;;7.87;100.00;99015.06;5006872;28;20100;-72
2021/12/01 08:49:05;;;;;;;5.38;4.03;;;;;;;8.04;100.00;99016.97;5011955;28;20029;-71
2021/12/01 08:51:31;;;;;;;4.50;3.83;;;;;;;7.96;100.00;99041.75;5012174;28;20029;-71
2021/12/01 08:53:56;;;;;;;5.82;4.78;;;;;;;8.06;100.00;99011.47;5022701;28;20030;-67
2021/12/01 08:56:22;;;;;;;6.45;5.07;;;;;;;7.84;100.00;98996.66;5014992;28;20116;-67
2021/12/01 08:58:48;;;;;;;6.53;5.93;;;;;;;8.21;100.00;99015.31;5014566;28;20029;-66
2021/12/01 09:01:13;;;;;;;6.22;5.63;;;;;;;8.19;100.00;99024.50;5010857;28;20064;-65
2021/12/01 09:03:39;;;;;;;5.72;4.65;;;;;;;8.06;100.00;99025.69;5014437;28;20084;-66
2021/12/01 09:06:04;;;;;;;6.18;4.80;;;;;;;8.09;100.00;99012.00;5013757;28;20053;-65
2021/12/01 09:08:30;;;;;;;6.03;5.43;;;;;;;8.18;100.00;99007.63;5018621;28;20044;-66
2021/12/01 09:10:57;;;;;;;7.35;5.03;;;;;;;8.23;100.00;99012.53;4984676;28;20045;-65
2021/12/01 09:13:25;;;;;;;5.22;4.72;;;;;;;8.25;100.00;99035.44;5024153;28;20036;-66
2021/12/01 09:15:52;;;;;;;3.72;3.38;;;;;;;8.18;100.00;99031.69;5015720;28;20021;-65
2021/12/01 09:18:20;;;;;;;6.05;4.20;;;;;;;8.14;100.00;99032.97;5012718;28;20568;-65
2021/12/01 09:20:46;;;;;;;5.85;4.85;;;;;;;8.29;100.00;99037.81;5014753;28;20121;-67
2021/12/01 09:23:11;;;;;;;5.60;4.72;;;;;;;8.14;100.00;99011.59;5015519;28;20090;-65
2021/12/01 09:25:37;;;;;;;4.32;3.92;;;;;;;8.19;100.00;99036.06;5015765;28;20542;-66
2021/12/01 09:28:02;;;;;;;7.85;6.15;;;;;;;8.28;100.00;99030.78;5002506;28;20042;-65
2021/12/01 09:30:28;;;;;;;5.90;4.82;;;;;;;8.25;100.00;99037.28;5015590;28;20038;-66
2021/12/01 09:32:53;;;;;;;8.10;6.90;;;;;;;8.23;100.00;99047.28;5018348;28;20053;-67
2021/12/01 09:35:19;;;;;;;7.68;5.68;;;;;;;8.29;100.00;99059.19;4997812;28;20083;-64
2021/12/01 09:37:44;;;;;;;7.57;4.38;;;;;;;8.01;100.00;99068.06;5013997;28;20125;-66
2021/12/01 09:40:14;;;;;;;4.57;4.10;;;;;;;8.06;100.00;99079.16;5017664;28;20044;-71
2021/12/01 09:42:41;;;;;;;4.05;2.10;;;;;;;7.85;100.00;99076.69;5020961;28;20025;-72
2021/12/01 09:45:07;;;;;;;6.78;1.73;;;;;;;7.89;100.00;99070.06;5016186;28;20026;-71
2021/12/01 09:47:33;;;;;;;5.15;1.90;;;;;;;7.69;100.00;99071.94;5020403;28;20115;-70
2021/12/01 09:49:58;;;;;;;3.33;1.33;;;;;;;7.61;100.00;99080.69;5018263;28;20116;-71
2021/12/01 09:52:23;;;;;;;5.60;1.73;;;;;;;7.52;100.00;99076.19;5023304;28;20072;-70
2021/12/01 09:54:50;;;;;;;4.72;1.27;;;;;;;7.42;100.00;99086.03;5016204;28;20115;-71
2021/12/01 09:57:15;;;;;;;6.57;1.50;;;;;;;7.49;100.00;99081.81;5017703;28;20063;-72
2021/12/01 09:59:42;;;;;;;8.27;2.28;;;;;;;7.40;100.00;99069.34;5015659;28;20041;-70
2021/12/01 10:02:08;;;;;;;8.60;1.65;;;;;;;7.25;100.00;99058.25;5011119;28;20033;-70
2021/12/01 10:04:34;;;;;;;6.25;1.40;;;;;;;7.40;100.00;99072.00;5014669;28;20042;-66
2021/12/01 10:07:12;;;;;;;9.77;2.03;;;;;;;7.37;100.00;99064.28;5016024;28;20040;-64
2021/12/01 10:09:42;;;;;;;7.82;1.58;;;;;;;7.28;100.00;99040.13;5017667;28;20037;-65
2021/12/01 10:12:08;;;;;;;10.13;2.42;;;;;;;7.52;100.00;99060.19;5017226;28;20033;-64
2021/12/01 10:14:33;;;;;;;3.63;1.33;;;;;;;7.59;100.00;99058.63;5018298;28;20033;-64
2021/12/01 10:16:59;;;;;;;11.25;2.25;;;;;;;8.03;100.00;99044.69;5016386;28;20084;-65
2021/12/01 10:19:25;;;;;;;6.97;1.75;;;;;;;8.57;100.00;99043.16;5017725;28;20037;-64
2021/12/01 10:21:51;;;;;;;7.97;1.42;;;;;;;8.48;100.00;99044.88;5015967;28;20037;-64
2021/12/01 10:24:19;;;;;;;6.25;2.00;;;;;;;8.39;100.00;99050.13;5019304;28;20102;-64
2021/12/01 10:26:56;;;;;;;10.70;1.42;;;;;;;8.38;100.00;99044.94;5014807;28;20116;-64
2021/12/01 10:29:24;;;;;;;7.40;1.85;;;;;;;8.57;99.41;99045.84;5015935;28;20040;-65
2021/12/01 10:31:56;;;;;;;2.72;1.00;;;;;;;8.80;98.83;99040.91;5012692;28;20043;-64
2021/12/01 10:34:30;;;;;;;5.32;1.20;;;;;;;9.37;95.37;99047.75;5017238;28;20033;-65
2021/12/01 10:37:13;;;;;;;;;;;;;;;9.37;95.21;99051.25;5017810;28;20048;-64
2021/12/01 10:39:42;;;;;;;4.93;1.52;;;;;;;9.56;93.81;99041.34;5019730;28;19913;-66
2021/12/01 10:42:09;;;;;;;3.92;1.35;;;;;;;9.98;90.78;99058.50;5013972;28;20083;-64
2021/12/01 10:44:35;;;;;;;10.38;1.17;;;;;;;10.30;89.71;99039.06;4996723;28;20037;-64
2021/12/01 10:47:09;;;;;;;5.45;1.02;;;;;;;9.89;88.74;99045.09;4996586;28;20040;-63
2021/12/01 10:49:40;;;;;;;;;;;;;;;9.53;88.23;99039.00;5018183;28;20032;-64
2021/12/01 10:52:07;;;;;;;2.10;0.73;;;;;;;9.57;90.80;99051.06;5012358;28;20291;-63
2021/12/01 10:54:32;;;;;;;6.32;1.00;;;;;;;9.15;88.35;99048.09;5014214;28;20022;-64
2021/12/01 10:57:22;;;;;;;5.03;0.80;;;;;;;8.81;91.66;99054.13;5009955;28;20391;-65
2021/12/01 10:59:49;;;;;;;6.47;0.75;;;;;;;8.64;91.17;99044.25;4996462;28;20033;-64
2021/12/01 11:02:16;;;;;;;4.85;1.35;;;;;;;8.85;91.16;99035.94;5014092;28;20036;-65
2021/12/01 11:04:45;;;;;;;1.15;0.80;;;;;;;9.33;89.14;99031.13;5011673;28;20482;-65
2021/12/01 11:07:28;;;;;;;5.25;1.17;;;;;;;9.78;88.39;99047.19;5015104;28;20495;-64
2021/12/01 11:10:11;;;;;;;4.93;1.48;;;;;;;9.60;88.97;99023.97;5010322;28;20041;-65
2021/12/01 11:12:36;;;;;;;9.27;1.60;;;;;;;9.05;91.75;99036.59;5015303;28;20091;-65
2021/12/01 11:15:36;;;;;;;4.97;0.82;;;;;;;8.99;91.84;99042.59;5013571;28;20029;-65
2021/12/01 11:18:03;;;;;;;4.00;0.90;;;;;;;8.57;93.82;99032.47;5013161;28;20037;-72
2021/12/01 11:20:39;;;;;;;5.65;1.00;;;;;;;8.43;95.16;99048.03;5011125;28;20546;-72
2021/12/01 11:23:16;;;;;;;2.88;0.60;;;;;;;8.28;93.48;99047.69;4997521;28;20034;-71
2021/12/01 11:25:45;;;;;;;4.72;0.75;;;;;;;8.14;95.56;99026.78;5014452;28;20029;-72
2021/12/01 11:28:15;;;;;;;4.80;0.90;;;;;;;8.05;96.01;99041.88;5013751;28;20387;-72
2021/12/01 11:30:42;;;;;;;3.70;0.85;;;;;;;8.07;95.06;99040.75;5014735;28;20021;-71
2021/12/01 11:33:13;;;;;;;4.18;1.10;;;;;;;8.07;95.84;99054.13;5015499;28;20068;-72
2021/12/01 11:35:40;;;;;;;2.42;1.00;;;;;;;8.06;95.93;99054.25;5013210;28;20468;-69
2021/12/01 11:38:07;;;;;;;2.17;1.02;;;;;;;7.99;95.80;99067.34;5018281;28;20113;-72